Cape Express — HO5337 — position and weather

sailwx.info

Track history (hours):
 
Tides and Currents Weather Stations Pressure Air Temp Water Temp Dewpoint Dewpoint Depression Visibility Wind Speed Wind Dir Waves Ship Positions

Cape Express

Last reported at 2014-Sep-21 07:33 UTC. Time now 2014-Sep-21 08:06 UTC.
Position N 25°54' W 079°42'.

Length 29 m; draft 2.2 m.

Type: Cargo ship. MMSI: 370269000.

Date/timePositionNaut miles runAvg speedWind from/ knotsBaromVisibWave heightAir tempDewpointWater temp
2014-Sep-21 07:33N 25°54' W 079°42'9 9.2
2014-Sep-21 06:33N 25°50' W 079°33'2 0.1
2014-Sep-20 10:27N 25°51' W 079°35'7 8.3
2014-Sep-20 09:33N 25°55' W 079°43'8 8.4
2014-Sep-20 08:33N 25°58' W 079°51'10 9.9
2014-Sep-20 07:33N 26°03' W 080°00'6 6.1
2014-Sep-20 06:33N 26°04' W 080°07'1 0.6
2014-Sep-20 05:33N 26°04' W 080°08'0 0.0
2014-Sep-20 04:33N 26°04' W 080°08'0 0.0
2014-Sep-20 03:33N 26°04' W 080°08'0 0.0
2014-Sep-20 02:33N 26°04' W 080°08'0 0.0
2014-Sep-20 01:33N 26°04' W 080°08'0 0.0
2014-Sep-20 00:33N 26°04' W 080°08'1 0.8
2014-Sep-19 23:33N 26°04' W 080°07'8 7.6
2014-Sep-19 22:33N 26°05' W 079°59'1110.6
2014-Sep-19 21:33N 26°05' W 079°47'10 9.9
2014-Sep-19 20:33N 26°04' W 079°36'12 9.1
2014-Sep-19 19:14N 26°08' W 079°23'7 9.5
2014-Sep-19 18:29N 26°11' W 079°16'17 1.5
2014-Sep-19 07:33N 26°14' W 079°35'1110.8
2014-Sep-19 06:33N 26°10' W 079°46'1010.5
2014-Sep-19 05:33N 26°06' W 079°57'9 8.9
2014-Sep-19 04:33N 26°05' W 080°07'1 1.3
2014-Sep-19 03:33N 26°04' W 080°08'0 0.0
2014-Sep-19 02:33N 26°04' W 080°08'0 0.0
2014-Sep-19 01:33N 26°04' W 080°08'0 0.0
2014-Sep-19 00:33N 26°04' W 080°08'0 0.1
2014-Sep-18 23:33N 26°04' W 080°08'5 5.5
2014-Sep-18 22:33N 26°04' W 080°02'1111.1
2014-Sep-18 21:33N 25°58' W 079°51'1111.4
2014-Sep-18 20:33N 25°53' W 079°40'3 0.2
2014-Sep-18 06:31N 25°51' W 079°43'6 5.9
2014-Sep-18 05:33N 25°54' W 079°48'6 6.4
2014-Sep-18 04:33N 25°58' W 079°54'7 7.1
2014-Sep-18 03:33N 26°02' W 080°00'7 6.5
2014-Sep-18 02:33N 26°05' W 080°07'2 1.6
2014-Sep-18 01:33N 26°04' W 080°08'0 0.0
2014-Sep-18 00:33N 26°04' W 080°08'0 0.0
2014-Sep-17 23:33N 26°04' W 080°08'0 0.0
2014-Sep-17 22:33N 26°04' W 080°08'0 0.0
2014-Sep-17 21:33N 26°04' W 080°08'0 0.0
2014-Sep-17 20:33N 26°04' W 080°08'0 0.0
2014-Sep-17 19:33N 26°04' W 080°08'0 0.0
2014-Sep-17 18:33N 26°04' W 080°08'0 0.3
2014-Sep-17 17:33N 26°04' W 080°08'5 5.2
2014-Sep-17 16:33N 26°04' W 080°02'1110.6
2014-Sep-17 15:33N 26°01' W 079°51'1110.9
2014-Sep-17 14:33N 25°58' W 079°39'1210.8
2014-Sep-17 13:27N 25°54' W 079°26'  
2014-Sep-14 01:33N 25°57' W 079°30'34 8.4
2014-Sep-13 21:33N 26°05' W 080°07'2 1.6
2014-Sep-13 20:33N 26°04' W 080°08'0 0.0
2014-Sep-13 19:33N 26°04' W 080°08'0 0.0
2014-Sep-13 18:33N 26°04' W 080°08'0 0.0
2014-Sep-13 17:33N 26°04' W 080°08'0 0.0
2014-Sep-13 16:33N 26°04' W 080°08'0 0.0
2014-Sep-13 15:33N 26°04' W 080°08'0 0.0
2014-Sep-13 14:33N 26°04' W 080°08'0 0.1
2014-Sep-13 13:33N 26°04' W 080°08'6 5.9
2014-Sep-13 12:33N 26°05' W 080°02'9 9.1
2014-Sep-13 11:33N 26°05' W 079°51'9 9.4
2014-Sep-13 10:33N 26°05' W 079°41'10 9.6
2014-Sep-13 09:33N 26°04' W 079°30'  
Track history (hours):
 
Tides and Currents Weather Stations Pressure Air Temp Water Temp Dewpoint Dewpoint Depression Visibility Wind Speed Wind Dir Waves Ship Positions

Cape Express

Last reported at 2014-Sep-21 07:33 UTC. Time now 2014-Sep-21 08:06 UTC.
Position N 25°54' W 079°42'.

Length 29 m; draft 2.2 m.

Type: Cargo ship. MMSI: 370269000.

Date/timePositionNaut miles runAvg speedWind from/ knotsBaromVisibWave heightAir tempDewpointWater temp
2014-Sep-21 07:33N 25°54' W 079°42'9 9.2
2014-Sep-21 06:33N 25°50' W 079°33'2 0.1
2014-Sep-20 10:27N 25°51' W 079°35'7 8.3
2014-Sep-20 09:33N 25°55' W 079°43'8 8.4
2014-Sep-20 08:33N 25°58' W 079°51'10 9.9
2014-Sep-20 07:33N 26°03' W 080°00'6 6.1
2014-Sep-20 06:33N 26°04' W 080°07'1 0.6
2014-Sep-20 05:33N 26°04' W 080°08'0 0.0
2014-Sep-20 04:33N 26°04' W 080°08'0 0.0
2014-Sep-20 03:33N 26°04' W 080°08'0 0.0
2014-Sep-20 02:33N 26°04' W 080°08'0 0.0
2014-Sep-20 01:33N 26°04' W 080°08'0 0.0
2014-Sep-20 00:33N 26°04' W 080°08'1 0.8
2014-Sep-19 23:33N 26°04' W 080°07'8 7.6
2014-Sep-19 22:33N 26°05' W 079°59'1110.6
2014-Sep-19 21:33N 26°05' W 079°47'10 9.9
2014-Sep-19 20:33N 26°04' W 079°36'12 9.1
2014-Sep-19 19:14N 26°08' W 079°23'7 9.5
2014-Sep-19 18:29N 26°11' W 079°16'17 1.5
2014-Sep-19 07:33N 26°14' W 079°35'1110.8
2014-Sep-19 06:33N 26°10' W 079°46'1010.5
2014-Sep-19 05:33N 26°06' W 079°57'9 8.9
2014-Sep-19 04:33N 26°05' W 080°07'1 1.3
2014-Sep-19 03:33N 26°04' W 080°08'0 0.0
2014-Sep-19 02:33N 26°04' W 080°08'0 0.0
2014-Sep-19 01:33N 26°04' W 080°08'0 0.0
2014-Sep-19 00:33N 26°04' W 080°08'0 0.1
2014-Sep-18 23:33N 26°04' W 080°08'5 5.5
2014-Sep-18 22:33N 26°04' W 080°02'1111.1
2014-Sep-18 21:33N 25°58' W 079°51'1111.4
2014-Sep-18 20:33N 25°53' W 079°40'3 0.2
2014-Sep-18 06:31N 25°51' W 079°43'6 5.9
2014-Sep-18 05:33N 25°54' W 079°48'6 6.4
2014-Sep-18 04:33N 25°58' W 079°54'7 7.1
2014-Sep-18 03:33N 26°02' W 080°00'7 6.5
2014-Sep-18 02:33N 26°05' W 080°07'2 1.6
2014-Sep-18 01:33N 26°04' W 080°08'0 0.0
2014-Sep-18 00:33N 26°04' W 080°08'0 0.0
2014-Sep-17 23:33N 26°04' W 080°08'0 0.0
2014-Sep-17 22:33N 26°04' W 080°08'0 0.0
2014-Sep-17 21:33N 26°04' W 080°08'0 0.0
2014-Sep-17 20:33N 26°04' W 080°08'0 0.0
2014-Sep-17 19:33N 26°04' W 080°08'0 0.0
2014-Sep-17 18:33N 26°04' W 080°08'0 0.3
2014-Sep-17 17:33N 26°04' W 080°08'5 5.2
2014-Sep-17 16:33N 26°04' W 080°02'1110.6
2014-Sep-17 15:33N 26°01' W 079°51'1110.9
2014-Sep-17 14:33N 25°58' W 079°39'1210.8
2014-Sep-17 13:27N 25°54' W 079°26'  
2014-Sep-14 01:33N 25°57' W 079°30'34 8.4
2014-Sep-13 21:33N 26°05' W 080°07'2 1.6
2014-Sep-13 20:33N 26°04' W 080°08'0 0.0
2014-Sep-13 19:33N 26°04' W 080°08'0 0.0
2014-Sep-13 18:33N 26°04' W 080°08'0 0.0
2014-Sep-13 17:33N 26°04' W 080°08'0 0.0
2014-Sep-13 16:33N 26°04' W 080°08'0 0.0
2014-Sep-13 15:33N 26°04' W 080°08'0 0.0
2014-Sep-13 14:33N 26°04' W 080°08'0 0.1
2014-Sep-13 13:33N 26°04' W 080°08'6 5.9
2014-Sep-13 12:33N 26°05' W 080°02'9 9.1
2014-Sep-13 11:33N 26°05' W 079°51'9 9.4
2014-Sep-13 10:33N 26°05' W 079°41'10 9.6
2014-Sep-13 09:33N 26°04' W 079°30'  

Dump ship's entire track history